»·PEaware :: N5939V KRAL-04CA

N5939V :: KRAL-04CA

FLIGHT INFORMATION

Flight Status: Arrived
Operator: Privately registered:
United States
More flights under this callsign
Pilot: Anonymous 30260 (30260)
Aircraft: SOCATA TBM-900
(TBM9)
More flights by this aircraft type
Origin: KRAL Riverside Mun
United States
Destination: 04CA Gray Butte Fld
United States
More flights between these airports :: More routes between these airports
Route: +RAL1 PDZ V442 APLES V386 IMSIJ
File this flight plan on PilotEdge
Remarks:
Altitude:
(Current/Filed)
10,000ft
Speed:
(Current/Filed)
252kts
Departed: 10-Oct-20 08:40 AM
Arrived: 10-Oct-20 09:09 AM
Distance/Time
Traveled:
39nm/0:29
Distance/Time
To Go:
Arrived

Flight Plot

Page will automatically refresh every two minutes.

Flight plan parsing failed; only flown route is shown


Map Options




Map Legend


Flown Route
Filed Route
Departure Airport
Arrival Airport
Navaid (VOR, NDB)
Fix

Horizontal Profiles

Position Reports

Time Latitude Longitude Heading Altitude Ground
Speed
10-Oct-20 08:27 33.950256 -117.442864 22 781ft 0kts
10-Oct-20 08:28 33.950256 -117.442864 22 781ft 0kts
10-Oct-20 08:29 33.950256 -117.442864 22 781ft 0kts
10-Oct-20 08:30 33.950256 -117.442864 22 781ft 0kts
10-Oct-20 08:31 33.950256 -117.442864 22 781ft 0kts
10-Oct-20 08:32 33.950256 -117.442864 22 781ft 0kts
10-Oct-20 08:33 33.950256 -117.442864 22 781ft 0kts
10-Oct-20 08:34 33.950256 -117.442864 22 781ft 0kts
10-Oct-20 08:35 33.950256 -117.442864 22 781ft 0kts
10-Oct-20 08:36 33.950500 -117.442616 28 784ft 7kts
10-Oct-20 08:37 33.950746 -117.439719 104 800ft 11kts
10-Oct-20 08:38 33.949968 -117.435709 103 812ft 9kts
10-Oct-20 08:39 33.953423 -117.449461 283 991ft 124kts
10-Oct-20 08:40 33.959139 -117.491485 280 3036ft 133kts
10-Oct-20 08:41 33.966606 -117.537192 284 4539ft 156kts
10-Oct-20 08:42 33.954275 -117.569607 181 5221ft 171kts
10-Oct-20 08:43 33.920892 -117.538488 99 6904ft 173kts
10-Oct-20 08:44 33.948749 -117.496456 18 8620ft 164kts
10-Oct-20 08:45 33.999990 -117.471181 19 9003ft 236kts
10-Oct-20 08:46 34.065257 -117.439410 19 8983ft 259kts
10-Oct-20 08:47 34.131423 -117.402052 24 8982ft 264kts
10-Oct-20 08:48 34.196826 -117.362609 24 8981ft 265kts
10-Oct-20 08:49 34.266654 -117.320440 24 8981ft 264kts
10-Oct-20 08:50 34.333793 -117.279829 24 8981ft 263kts
10-Oct-20 08:51 34.400884 -117.239173 24 8990ft 261kts
10-Oct-20 08:52 34.468856 -117.197908 26 8992ft 270kts
10-Oct-20 08:53 34.540778 -117.165226 1 8996ft 270kts
10-Oct-20 08:54 34.620435 -117.159563 1 8561ft 266kts
10-Oct-20 08:55 34.696396 -117.154695 1 7982ft 237kts
10-Oct-20 08:56 34.764879 -117.150017 1 8018ft 231kts
10-Oct-20 08:57 34.832860 -117.146135 359 6393ft 234kts
10-Oct-20 08:58 34.853049 -117.187412 236 5421ft 204kts
10-Oct-20 08:59 34.821040 -117.249648 237 5370ft 205kts
10-Oct-20 09:00 34.784604 -117.314034 231 5021ft 215kts
10-Oct-20 09:01 34.745517 -117.376474 230 4908ft 213kts
10-Oct-20 09:02 34.707614 -117.438571 232 4975ft 209kts
10-Oct-20 09:03 34.671728 -117.502116 232 5039ft 212kts
10-Oct-20 09:05 34.634128 -117.565994 233 4981ft 217kts
10-Oct-20 09:06 34.595355 -117.626750 193 4947ft 176kts
10-Oct-20 09:07 34.568547 -117.632054 259 3758ft 101kts
10-Oct-20 09:08 34.566651 -117.664357 269 3033ft 53kts
10-Oct-20 09:09 34.566625 -117.675149 269 3021ft 27kts
10-Oct-20 09:10 34.565251 -117.679982 178 3018ft 10kts
10-Oct-20 09:11 34.564480 -117.679862 86 3020ft 0kts
10-Oct-20 09:12 34.564480 -117.679862 86 3020ft 0kts
10-Oct-20 09:13 34.564480 -117.679862 86 3020ft 0kts
10-Oct-20 09:14 34.564480 -117.679862 86 3020ft 0kts
10-Oct-20 09:15 34.564480 -117.679862 86 3020ft 0kts
10-Oct-20 09:16 34.564480 -117.679862 86 3020ft 0kts
10-Oct-20 09:17 34.564480 -117.679862 86 3020ft 0kts
10-Oct-20 09:18 34.564480 -117.679862 86 3020ft 0kts
10-Oct-20 09:18 34.564480 -117.679862 86 3020ft 0kts
10-Oct-20 09:20 34.564480 -117.679862 86 3020ft 0kts
10-Oct-20 09:20 34.564480 -117.679862 86 3020ft 0kts
10-Oct-20 09:22 34.564480 -117.679862 86 3020ft 0kts
10-Oct-20 09:22 34.564480 -117.679862 86 3020ft 0kts
10-Oct-20 09:23 34.564480 -117.679862 86 3020ft 0kts

Navigation Log

Ident Type
Flight plan parsing failed, navigation log unavailable